地図

経路データ

SID SEASON NUMBER BASIN SUBBASIN NAME ISO_TIME NATURE LAT LON WMO_WIND WMO_PRES WMO_AGENCY TRACK_TYPE DIST2LAND LANDFALL IFLAG USA_AGENCY USA_ATCF_ID USA_LAT USA_LON USA_RECORD USA_STATUS USA_WIND USA_PRES USA_SSHS USA_R34_NE USA_R34_SE USA_R34_SW USA_R34_NW USA_R50_NE USA_R50_SE USA_R50_SW USA_R50_NW USA_R64_NE USA_R64_SE USA_R64_SW USA_R64_NW USA_POCI USA_ROCI USA_RMW USA_EYE TOKYO_LAT TOKYO_LON TOKYO_GRADE TOKYO_WIND TOKYO_PRES TOKYO_R50_DIR TOKYO_R50_LONG TOKYO_R50_SHORT TOKYO_R30_DIR TOKYO_R30_LONG TOKYO_R30_SHORT TOKYO_LAND CMA_LAT CMA_LON CMA_CAT CMA_WIND CMA_PRES HKO_LAT HKO_LON HKO_CAT HKO_WIND HKO_PRES NEWDELHI_LAT NEWDELHI_LON NEWDELHI_GRADE NEWDELHI_WIND NEWDELHI_PRES NEWDELHI_CI NEWDELHI_DP NEWDELHI_POCI REUNION_LAT REUNION_LON REUNION_TYPE REUNION_WIND REUNION_PRES REUNION_TNUM REUNION_CI REUNION_RMW REUNION_R34_NE REUNION_R34_SE REUNION_R34_SW REUNION_R34_NW REUNION_R50_NE REUNION_R50_SE REUNION_R50_SW REUNION_R50_NW REUNION_R64_NE REUNION_R64_SE REUNION_R64_SW REUNION_R64_NW BOM_LAT BOM_LON BOM_TYPE BOM_WIND BOM_PRES BOM_TNUM BOM_CI BOM_RMW BOM_R34_NE BOM_R34_SE BOM_R34_SW BOM_R34_NW BOM_R50_NE BOM_R50_SE BOM_R50_SW BOM_R50_NW BOM_R64_NE BOM_R64_SE BOM_R64_SW BOM_R64_NW BOM_ROCI BOM_POCI BOM_EYE BOM_POS_METHOD BOM_PRES_METHOD NADI_LAT NADI_LON NADI_CAT NADI_WIND NADI_PRES WELLINGTON_LAT WELLINGTON_LON WELLINGTON_WIND WELLINGTON_PRES DS824_LAT DS824_LON DS824_STAGE DS824_WIND DS824_PRES TD9636_LAT TD9636_LON TD9636_STAGE TD9636_WIND TD9636_PRES TD9635_LAT TD9635_LON TD9635_WIND TD9635_PRES TD9635_ROCI NEUMANN_LAT NEUMANN_LON NEUMANN_CLASS NEUMANN_WIND NEUMANN_PRES MLC_LAT MLC_LON MLC_CLASS MLC_WIND MLC_PRES USA_GUST BOM_GUST BOM_GUST_PER REUNION_GUST REUNION_GUST_PER USA_SEAHGT USA_SEARAD_NE USA_SEARAD_SE USA_SEARAD_SW USA_SEARAD_NW STORM_SPEED STORM_DIR
1948027S15148 1948 11 SP EA NOT_NAMED 1948-01-26 12:00:00 NR -14.8000 147.600 main 242 240 __________O___ -1 -14.8000 147.600 7 7 149
1948027S15148 1948 11 SP EA NOT_NAMED 1948-01-26 15:00:00 NR -15.0923 147.781 main 258 257 __________P___ -1 -15.0923 147.781 7 7 149
1948027S15148 1948 11 SP EA NOT_NAMED 1948-01-26 18:00:00 NR -15.3776 147.960 main 278 275 __________P___ -1 -15.3776 147.960 7 7 149
1948027S15148 1948 11 SP EA NOT_NAMED 1948-01-26 21:00:00 NR -15.6491 148.134 main 282 276 __________P___ -1 -15.6491 148.134 7 6 148
1948027S15148 1948 11 SP EA NOT_NAMED 1948-01-27 00:00:00 NR -15.9000 148.300 main 284 279 __________O___ -1 -15.9000 148.300 7 6 147
1948027S15148 1948 11 SP EA NOT_NAMED 1948-01-27 03:00:00 NR -16.1256 148.456 main 294 283 __________P___ -1 -16.1256 148.456 7 5 147
1948027S15148 1948 11 SP EA NOT_NAMED 1948-01-27 06:00:00 NR -16.3300 148.595 main 293 288 __________P___ -1 -16.3300 148.595 7 5 148
1948027S15148 1948 11 SP EA NOT_NAMED 1948-01-27 09:00:00 NR -16.5194 148.712 main 294 290 __________P___ -1 -16.5194 148.712 7 4 152
1948027S15148 1948 11 SP EA NOT_NAMED 1948-01-27 12:00:00 NR -16.7000 148.800 main 297 294 __________O___ -1 -16.7000 148.800 7 4 158
1948027S15148 1948 11 SP EA NOT_NAMED 1948-01-27 15:00:00 NR -16.8740 148.862 main 302 300 __________P___ -1 -16.8740 148.862 7 4 165
1948027S15148 1948 11 SP EA NOT_NAMED 1948-01-27 18:00:00 NR -17.0424 148.895 main 300 292 __________P___ -1 -17.0424 148.895 7 3 174
1948027S15148 1948 11 SP EA NOT_NAMED 1948-01-27 21:00:00 NR -17.2147 148.906 main 292 274 __________P___ -1 -17.2147 148.906 7 4 176
1948027S15148 1948 11 SP EA NOT_NAMED 1948-01-28 00:00:00 NR -17.4000 148.900 main 274 256 __________O___ -1 -17.4000 148.900 7 4 0
1948027S15148 1948 11 SP EA NOT_NAMED 1948-01-28 03:00:00 NR -17.6147 148.889 main 256 238 __________P___ -1 -17.6147 148.889 7 4 185
1948027S15148 1948 11 SP EA NOT_NAMED 1948-01-28 06:00:00 NR -17.8425 148.865 main 238 207 __________P___ -1 -17.8425 148.865 7 5 187
1948027S15148 1948 11 SP EA NOT_NAMED 1948-01-28 09:00:00 NR -18.0741 148.833 main 207 191 __________P___ -1 -18.0741 148.833 7 5 187
1948027S15148 1948 11 SP EA NOT_NAMED 1948-01-28 12:00:00 NR -18.3000 148.800 main 191 175 __________O___ -1 -18.3000 148.800 7 5 186
1948027S15148 1948 11 SP EA NOT_NAMED 1948-01-28 15:00:00 NR -18.5194 148.783 main 175 154 __________P___ -1 -18.5194 148.783 7 4 185
1948027S15148 1948 11 SP EA NOT_NAMED 1948-01-28 18:00:00 NR -18.7300 148.765 main 154 129 __________P___ -1 -18.7300 148.765 7 4 184
1948027S15148 1948 11 SP EA NOT_NAMED 1948-01-28 21:00:00 NR -18.9256 148.739 main 129 109 __________P___ -1 -18.9256 148.739 7 4 188
1948027S15148 1948 11 SP EA NOT_NAMED 1948-01-29 00:00:00 NR -19.1000 148.700 main 109 94 __________O___ -1 -19.1000 148.700 7 3 197
1948027S15148 1948 11 SP EA NOT_NAMED 1948-01-29 03:00:00 NR -19.2425 148.639 main 94 74 __________P___ -1 -19.2425 148.639 7 3 205
1948027S15148 1948 11 SP EA NOT_NAMED 1948-01-29 06:00:00 NR -19.3650 148.565 main 74 59 __________P___ -1 -19.3650 148.565 7 3 212
1948027S15148 1948 11 SP EA NOT_NAMED 1948-01-29 09:00:00 NR -19.4800 148.483 main 59 45 __________P___ -1 -19.4800 148.483 7 3 213
1948027S15148 1948 11 SP EA NOT_NAMED 1948-01-29 12:00:00 NR -19.6000 148.400 main 45 33 __________O___ -1 -19.6000 148.400 7 3 211
1948027S15148 1948 11 SP EA NOT_NAMED 1948-01-29 15:00:00 NR -19.7347 148.321 main 33 11 __________P___ -1 -19.7347 148.321 7 3 208
1948027S15148 1948 11 SP EA NOT_NAMED 1948-01-29 18:00:00 NR -19.8825 148.245 main 11 0 __________P___ -1 -19.8825 148.245 7 3 204
1948027S15148 1948 11 SP EA NOT_NAMED 1948-01-29 21:00:00 NR -20.0391 148.172 main 0 0 __________P___ -1 -20.0391 148.172 7 3 203
1948027S15148 1948 11 SP EA NOT_NAMED 1948-01-30 00:00:00 NR -20.2000 148.100 main 0 __________O___ -1 -20.2000 148.100 7 4 205

デジタル台風データ・検索

IBTrACS Databaseについて

本データベースは、米国NOAAが公開する1842年以降の世界の熱帯低気圧のベストトラックデータアーカイブInternational Best Track Archive for Climate Stewardship (IBTrACS)を、ウェブで閲覧しやすい形式に変換したものです。

最終更新日:2021-10-25